sensor_id;sensor_type;location;lat;lon;timestamp;P1;durP1;ratioP1;P2;durP2;ratioP2
27187;SDS011;14708;50.872;5.306;2022-07-23T00:00:58;3.95;;;3.47;;
27187;SDS011;14708;50.872;5.306;2022-07-23T00:03:23;4.38;;;3.67;;
27187;SDS011;14708;50.872;5.306;2022-07-23T00:05:49;3.60;;;3.30;;
27187;SDS011;14708;50.872;5.306;2022-07-23T00:08:15;4.07;;;3.78;;
27187;SDS011;14708;50.872;5.306;2022-07-23T00:10:41;3.40;;;3.10;;
27187;SDS011;14708;50.872;5.306;2022-07-23T00:13:07;3.10;;;2.90;;
27187;SDS011;14708;50.872;5.306;2022-07-23T00:15:33;3.50;;;3.20;;
27187;SDS011;14708;50.872;5.306;2022-07-23T00:17:58;3.75;;;3.45;;
27187;SDS011;14708;50.872;5.306;2022-07-23T00:20:24;4.18;;;3.47;;
27187;SDS011;14708;50.872;5.306;2022-07-23T00:22:50;3.50;;;3.08;;
27187;SDS011;14708;50.872;5.306;2022-07-23T00:25:17;3.65;;;3.35;;
27187;SDS011;14708;50.872;5.306;2022-07-23T00:27:43;3.45;;;3.20;;
27187;SDS011;14708;50.872;5.306;2022-07-23T00:30:09;3.97;;;3.40;;
27187;SDS011;14708;50.872;5.306;2022-07-23T00:32:48;4.15;;;3.67;;
27187;SDS011;14708;50.872;5.306;2022-07-23T00:35:19;3.65;;;3.35;;
27187;SDS011;14708;50.872;5.306;2022-07-23T00:37:46;3.55;;;3.25;;
27187;SDS011;14708;50.872;5.306;2022-07-23T00:40:12;4.75;;;3.65;;
27187;SDS011;14708;50.872;5.306;2022-07-23T00:42:39;3.80;;;3.50;;
27187;SDS011;14708;50.872;5.306;2022-07-23T00:45:05;3.80;;;3.50;;
27187;SDS011;14708;50.872;5.306;2022-07-23T00:47:31;3.45;;;3.15;;
27187;SDS011;14708;50.872;5.306;2022-07-23T00:49:57;3.92;;;3.58;;
27187;SDS011;14708;50.872;5.306;2022-07-23T00:52:23;3.55;;;3.25;;
27187;SDS011;14708;50.872;5.306;2022-07-23T00:54:49;3.80;;;3.50;;
27187;SDS011;14708;50.872;5.306;2022-07-23T00:57:15;3.45;;;3.17;;
27187;SDS011;14708;50.872;5.306;2022-07-23T00:59:41;3.50;;;3.20;;
27187;SDS011;14708;50.872;5.306;2022-07-23T01:02:07;3.83;;;3.45;;
27187;SDS011;14708;50.872;5.306;2022-07-23T01:04:32;4.43;;;3.58;;
27187;SDS011;14708;50.872;5.306;2022-07-23T01:06:58;3.90;;;3.50;;
27187;SDS011;14708;50.872;5.306;2022-07-23T01:09:25;3.90;;;3.55;;
27187;SDS011;14708;50.872;5.306;2022-07-23T01:11:51;3.80;;;3.40;;
27187;SDS011;14708;50.872;5.306;2022-07-23T01:14:19;5.60;;;3.42;;
27187;SDS011;14708;50.872;5.306;2022-07-23T01:16:49;3.83;;;3.33;;
27187;SDS011;14708;50.872;5.306;2022-07-23T01:19:15;4.88;;;3.47;;
27187;SDS011;14708;50.872;5.306;2022-07-23T01:21:43;3.67;;;3.38;;
27187;SDS011;14708;50.872;5.306;2022-07-23T01:24:13;3.53;;;3.22;;
27187;SDS011;14708;50.872;5.306;2022-07-23T01:26:41;4.15;;;3.25;;
27187;SDS011;14708;50.872;5.306;2022-07-23T01:29:08;4.13;;;3.03;;
27187;SDS011;14708;50.872;5.306;2022-07-23T01:31:34;3.33;;;3.03;;
27187;SDS011;14708;50.872;5.306;2022-07-23T01:34:00;3.60;;;3.30;;
27187;SDS011;14708;50.872;5.306;2022-07-23T01:36:26;4.00;;;3.70;;
27187;SDS011;14708;50.872;5.306;2022-07-23T01:38:51;3.65;;;3.35;;
27187;SDS011;14708;50.872;5.306;2022-07-23T01:41:17;3.65;;;3.35;;
27187;SDS011;14708;50.872;5.306;2022-07-23T01:43:43;3.70;;;3.40;;
27187;SDS011;14708;50.872;5.306;2022-07-23T01:46:09;3.50;;;3.20;;
27187;SDS011;14708;50.872;5.306;2022-07-23T01:48:35;4.68;;;3.28;;
27187;SDS011;14708;50.872;5.306;2022-07-23T01:51:01;3.47;;;3.17;;
27187;SDS011;14708;50.872;5.306;2022-07-23T01:53:27;3.30;;;3.00;;
27187;SDS011;14708;50.872;5.306;2022-07-23T01:55:56;3.50;;;3.20;;
27187;SDS011;14708;50.872;5.306;2022-07-23T01:58:22;3.38;;;3.08;;
27187;SDS011;14708;50.872;5.306;2022-07-23T02:00:47;3.50;;;3.20;;
27187;SDS011;14708;50.872;5.306;2022-07-23T02:03:13;3.08;;;2.88;;
27187;SDS011;14708;50.872;5.306;2022-07-23T02:05:38;3.53;;;3.22;;
27187;SDS011;14708;50.872;5.306;2022-07-23T02:08:04;3.60;;;3.30;;
27187;SDS011;14708;50.872;5.306;2022-07-23T02:10:30;3.40;;;3.10;;
27187;SDS011;14708;50.872;5.306;2022-07-23T02:12:55;3.50;;;3.20;;
27187;SDS011;14708;50.872;5.306;2022-07-23T02:15:21;3.63;;;3.33;;
27187;SDS011;14708;50.872;5.306;2022-07-23T02:17:47;3.33;;;2.90;;
27187;SDS011;14708;50.872;5.306;2022-07-23T02:20:13;3.65;;;3.35;;
27187;SDS011;14708;50.872;5.306;2022-07-23T02:22:39;3.55;;;3.25;;
27187;SDS011;14708;50.872;5.306;2022-07-23T02:25:05;3.35;;;3.05;;
27187;SDS011;14708;50.872;5.306;2022-07-23T02:27:32;4.32;;;3.47;;
27187;SDS011;14708;50.872;5.306;2022-07-23T02:29:57;3.45;;;3.15;;
27187;SDS011;14708;50.872;5.306;2022-07-23T02:32:23;3.38;;;3.08;;
27187;SDS011;14708;50.872;5.306;2022-07-23T02:34:49;3.10;;;2.90;;
27187;SDS011;14708;50.872;5.306;2022-07-23T02:37:15;3.65;;;3.35;;
27187;SDS011;14708;50.872;5.306;2022-07-23T02:39:40;3.47;;;3.13;;
27187;SDS011;14708;50.872;5.306;2022-07-23T02:42:06;3.22;;;2.92;;
27187;SDS011;14708;50.872;5.306;2022-07-23T02:44:32;3.50;;;3.03;;
27187;SDS011;14708;50.872;5.306;2022-07-23T02:47:02;3.70;;;3.40;;
27187;SDS011;14708;50.872;5.306;2022-07-23T02:49:28;3.30;;;3.00;;
27187;SDS011;14708;50.872;5.306;2022-07-23T02:51:54;3.88;;;3.58;;
27187;SDS011;14708;50.872;5.306;2022-07-23T02:54:19;3.35;;;3.05;;
27187;SDS011;14708;50.872;5.306;2022-07-23T02:56:45;3.05;;;2.85;;
27187;SDS011;14708;50.872;5.306;2022-07-23T02:59:10;3.40;;;3.10;;
27187;SDS011;14708;50.872;5.306;2022-07-23T03:01:36;4.05;;;2.67;;
27187;SDS011;14708;50.872;5.306;2022-07-23T03:04:02;3.20;;;2.90;;
27187;SDS011;14708;50.872;5.306;2022-07-23T03:06:28;3.17;;;2.97;;
27187;SDS011;14708;50.872;5.306;2022-07-23T03:08:54;3.80;;;2.90;;
27187;SDS011;14708;50.872;5.306;2022-07-23T03:11:19;3.03;;;2.83;;
27187;SDS011;14708;50.872;5.306;2022-07-23T03:13:45;3.40;;;3.10;;
27187;SDS011;14708;50.872;5.306;2022-07-23T03:16:11;3.60;;;3.30;;
27187;SDS011;14708;50.872;5.306;2022-07-23T03:18:36;3.28;;;3.03;;
27187;SDS011;14708;50.872;5.306;2022-07-23T03:21:02;3.70;;;3.40;;
27187;SDS011;14708;50.872;5.306;2022-07-23T03:23:28;3.13;;;2.90;;
27187;SDS011;14708;50.872;5.306;2022-07-23T03:25:53;3.00;;;2.80;;
27187;SDS011;14708;50.872;5.306;2022-07-23T03:28:19;3.45;;;3.10;;
27187;SDS011;14708;50.872;5.306;2022-07-23T03:30:45;3.38;;;3.08;;
27187;SDS011;14708;50.872;5.306;2022-07-23T03:33:14;3.28;;;2.90;;
27187;SDS011;14708;50.872;5.306;2022-07-23T03:35:41;3.00;;;2.67;;
27187;SDS011;14708;50.872;5.306;2022-07-23T03:38:07;3.65;;;3.35;;
27187;SDS011;14708;50.872;5.306;2022-07-23T03:40:33;3.47;;;3.17;;
27187;SDS011;14708;50.872;5.306;2022-07-23T03:42:58;3.67;;;3.38;;
27187;SDS011;14708;50.872;5.306;2022-07-23T03:45:24;3.20;;;2.90;;
27187;SDS011;14708;50.872;5.306;2022-07-23T03:47:49;3.10;;;2.90;;
27187;SDS011;14708;50.872;5.306;2022-07-23T03:50:15;3.30;;;3.00;;
27187;SDS011;14708;50.872;5.306;2022-07-23T03:52:40;3.30;;;3.00;;
27187;SDS011;14708;50.872;5.306;2022-07-23T03:55:07;3.15;;;2.85;;
27187;SDS011;14708;50.872;5.306;2022-07-23T03:57:32;3.40;;;3.10;;
27187;SDS011;14708;50.872;5.306;2022-07-23T03:59:58;3.33;;;3.03;;
27187;SDS011;14708;50.872;5.306;2022-07-23T04:02:24;3.60;;;3.30;;
27187;SDS011;14708;50.872;5.306;2022-07-23T04:04:49;3.03;;;2.70;;
27187;SDS011;14708;50.872;5.306;2022-07-23T04:07:15;4.15;;;3.00;;
27187;SDS011;14708;50.872;5.306;2022-07-23T04:09:42;3.15;;;2.85;;
27187;SDS011;14708;50.872;5.306;2022-07-23T04:12:08;3.10;;;2.80;;
27187;SDS011;14708;50.872;5.306;2022-07-23T04:14:34;2.90;;;2.70;;
27187;SDS011;14708;50.872;5.306;2022-07-23T04:16:59;3.45;;;3.15;;
27187;SDS011;14708;50.872;5.306;2022-07-23T04:19:25;3.10;;;2.80;;
27187;SDS011;14708;50.872;5.306;2022-07-23T04:21:51;2.95;;;2.63;;
27187;SDS011;14708;50.872;5.306;2022-07-23T04:24:17;3.72;;;3.38;;
27187;SDS011;14708;50.872;5.306;2022-07-23T04:26:43;3.17;;;2.90;;
27187;SDS011;14708;50.872;5.306;2022-07-23T04:29:10;2.80;;;2.60;;
27187;SDS011;14708;50.872;5.306;2022-07-23T04:31:35;3.42;;;3.13;;
27187;SDS011;14708;50.872;5.306;2022-07-23T04:34:01;3.38;;;3.08;;
27187;SDS011;14708;50.872;5.306;2022-07-23T04:36:27;2.85;;;2.47;;
27187;SDS011;14708;50.872;5.306;2022-07-23T04:38:53;3.63;;;3.33;;
27187;SDS011;14708;50.872;5.306;2022-07-23T04:41:19;2.83;;;2.63;;
27187;SDS011;14708;50.872;5.306;2022-07-23T04:43:45;3.20;;;2.90;;
27187;SDS011;14708;50.872;5.306;2022-07-23T04:46:11;3.25;;;2.95;;
27187;SDS011;14708;50.872;5.306;2022-07-23T04:48:37;4.05;;;3.03;;
27187;SDS011;14708;50.872;5.306;2022-07-23T04:51:02;3.08;;;2.88;;
27187;SDS011;14708;50.872;5.306;2022-07-23T04:53:28;3.40;;;3.00;;
27187;SDS011;14708;50.872;5.306;2022-07-23T04:55:54;2.80;;;2.60;;
27187;SDS011;14708;50.872;5.306;2022-07-23T04:58:20;2.63;;;2.42;;
27187;SDS011;14708;50.872;5.306;2022-07-23T05:00:46;3.38;;;3.08;;
27187;SDS011;14708;50.872;5.306;2022-07-23T05:03:12;2.90;;;2.60;;
27187;SDS011;14708;50.872;5.306;2022-07-23T05:05:38;2.90;;;2.70;;
27187;SDS011;14708;50.872;5.306;2022-07-23T05:08:04;2.60;;;2.40;;
27187;SDS011;14708;50.872;5.306;2022-07-23T05:10:30;2.90;;;2.70;;
27187;SDS011;14708;50.872;5.306;2022-07-23T05:12:56;2.85;;;2.60;;
27187;SDS011;14708;50.872;5.306;2022-07-23T05:15:21;2.90;;;2.70;;
27187;SDS011;14708;50.872;5.306;2022-07-23T05:17:47;2.90;;;2.70;;
27187;SDS011;14708;50.872;5.306;2022-07-23T05:20:13;2.92;;;2.65;;
27187;SDS011;14708;50.872;5.306;2022-07-23T05:22:38;3.20;;;2.75;;
27187;SDS011;14708;50.872;5.306;2022-07-23T05:25:05;2.67;;;2.47;;
27187;SDS011;14708;50.872;5.306;2022-07-23T05:27:31;2.50;;;2.30;;
27187;SDS011;14708;50.872;5.306;2022-07-23T05:29:57;2.78;;;2.55;;
27187;SDS011;14708;50.872;5.306;2022-07-23T05:32:22;2.63;;;2.42;;
27187;SDS011;14708;50.872;5.306;2022-07-23T05:34:48;2.80;;;2.60;;
27187;SDS011;14708;50.872;5.306;2022-07-23T05:37:14;2.75;;;2.55;;
27187;SDS011;14708;50.872;5.306;2022-07-23T05:39:40;2.78;;;2.58;;
27187;SDS011;14708;50.872;5.306;2022-07-23T05:42:05;2.92;;;2.63;;
27187;SDS011;14708;50.872;5.306;2022-07-23T05:44:31;3.88;;;2.55;;
27187;SDS011;14708;50.872;5.306;2022-07-23T05:46:57;6.40;;;2.38;;
27187;SDS011;14708;50.872;5.306;2022-07-23T05:49:22;3.60;;;2.53;;
27187;SDS011;14708;50.872;5.306;2022-07-23T05:51:48;3.53;;;2.50;;
27187;SDS011;14708;50.872;5.306;2022-07-23T05:54:13;5.45;;;2.42;;
27187;SDS011;14708;50.872;5.306;2022-07-23T05:56:39;4.93;;;2.53;;
27187;SDS011;14708;50.872;5.306;2022-07-23T05:59:04;7.90;;;2.88;;
27187;SDS011;14708;50.872;5.306;2022-07-23T06:01:31;3.13;;;2.80;;
27187;SDS011;14708;50.872;5.306;2022-07-23T06:03:56;4.65;;;2.40;;
27187;SDS011;14708;50.872;5.306;2022-07-23T06:06:22;4.07;;;2.67;;
27187;SDS011;14708;50.872;5.306;2022-07-23T06:08:47;8.63;;;4.32;;
27187;SDS011;14708;50.872;5.306;2022-07-23T06:11:16;8.00;;;5.57;;
27187;SDS011;14708;50.872;5.306;2022-07-23T06:13:41;7.57;;;4.63;;
27187;SDS011;14708;50.872;5.306;2022-07-23T06:16:07;7.63;;;3.60;;
27187;SDS011;14708;50.872;5.306;2022-07-23T06:18:32;7.85;;;4.15;;
27187;SDS011;14708;50.872;5.306;2022-07-23T06:20:58;6.30;;;3.60;;
27187;SDS011;14708;50.872;5.306;2022-07-23T06:23:23;7.70;;;3.40;;
27187;SDS011;14708;50.872;5.306;2022-07-23T06:25:49;8.35;;;3.70;;
27187;SDS011;14708;50.872;5.306;2022-07-23T06:28:15;8.35;;;4.50;;
27187;SDS011;14708;50.872;5.306;2022-07-23T06:30:40;7.38;;;4.55;;
27187;SDS011;14708;50.872;5.306;2022-07-23T06:33:06;7.80;;;4.65;;
27187;SDS011;14708;50.872;5.306;2022-07-23T06:35:32;8.30;;;4.88;;
27187;SDS011;14708;50.872;5.306;2022-07-23T06:37:58;9.57;;;4.93;;
27187;SDS011;14708;50.872;5.306;2022-07-23T06:40:24;13.68;;;4.40;;
27187;SDS011;14708;50.872;5.306;2022-07-23T06:42:49;9.60;;;5.03;;
27187;SDS011;14708;50.872;5.306;2022-07-23T06:45:15;7.63;;;4.72;;
27187;SDS011;14708;50.872;5.306;2022-07-23T06:47:40;6.88;;;4.13;;
27187;SDS011;14708;50.872;5.306;2022-07-23T06:50:06;9.55;;;3.72;;
27187;SDS011;14708;50.872;5.306;2022-07-23T06:52:32;19.98;;;6.35;;
27187;SDS011;14708;50.872;5.306;2022-07-23T06:54:58;20.02;;;6.57;;
27187;SDS011;14708;50.872;5.306;2022-07-23T06:57:23;15.85;;;5.97;;
27187;SDS011;14708;50.872;5.306;2022-07-23T06:59:50;14.00;;;6.18;;
27187;SDS011;14708;50.872;5.306;2022-07-23T07:02:16;20.92;;;5.88;;
27187;SDS011;14708;50.872;5.306;2022-07-23T07:04:42;11.30;;;5.07;;
27187;SDS011;14708;50.872;5.306;2022-07-23T07:07:07;11.45;;;5.10;;
27187;SDS011;14708;50.872;5.306;2022-07-23T07:09:33;16.50;;;5.88;;
27187;SDS011;14708;50.872;5.306;2022-07-23T07:11:58;13.48;;;6.65;;
27187;SDS011;14708;50.872;5.306;2022-07-23T07:14:24;42.15;;;12.73;;
27187;SDS011;14708;50.872;5.306;2022-07-23T07:16:50;38.92;;;14.45;;
27187;SDS011;14708;50.872;5.306;2022-07-23T07:19:15;27.95;;;11.68;;
27187;SDS011;14708;50.872;5.306;2022-07-23T07:21:41;26.65;;;11.50;;
27187;SDS011;14708;50.872;5.306;2022-07-23T07:24:07;23.98;;;9.85;;
27187;SDS011;14708;50.872;5.306;2022-07-23T07:26:33;14.63;;;9.13;;
27187;SDS011;14708;50.872;5.306;2022-07-23T07:28:59;18.08;;;8.27;;
27187;SDS011;14708;50.872;5.306;2022-07-23T07:31:25;15.55;;;9.07;;
27187;SDS011;14708;50.872;5.306;2022-07-23T07:33:51;13.98;;;8.07;;
27187;SDS011;14708;50.872;5.306;2022-07-23T07:36:16;15.43;;;8.63;;
27187;SDS011;14708;50.872;5.306;2022-07-23T07:38:42;11.23;;;9.10;;
27187;SDS011;14708;50.872;5.306;2022-07-23T07:41:07;11.88;;;7.93;;
27187;SDS011;14708;50.872;5.306;2022-07-23T07:43:35;10.68;;;9.00;;
27187;SDS011;14708;50.872;5.306;2022-07-23T07:46:01;9.70;;;7.90;;
27187;SDS011;14708;50.872;5.306;2022-07-23T07:48:27;9.95;;;7.90;;
27187;SDS011;14708;50.872;5.306;2022-07-23T07:50:53;11.68;;;8.45;;
27187;SDS011;14708;50.872;5.306;2022-07-23T07:53:19;10.82;;;7.88;;
27187;SDS011;14708;50.872;5.306;2022-07-23T07:55:44;14.27;;;8.07;;
27187;SDS011;14708;50.872;5.306;2022-07-23T07:58:10;10.50;;;7.78;;
27187;SDS011;14708;50.872;5.306;2022-07-23T08:00:36;11.65;;;7.38;;
27187;SDS011;14708;50.872;5.306;2022-07-23T08:03:02;10.35;;;7.20;;
27187;SDS011;14708;50.872;5.306;2022-07-23T08:05:28;12.20;;;7.93;;
27187;SDS011;14708;50.872;5.306;2022-07-23T08:07:55;10.50;;;7.28;;
27187;SDS011;14708;50.872;5.306;2022-07-23T08:10:22;8.57;;;5.80;;
27187;SDS011;14708;50.872;5.306;2022-07-23T08:12:50;10.60;;;5.90;;
27187;SDS011;14708;50.872;5.306;2022-07-23T08:15:18;11.65;;;5.70;;
27187;SDS011;14708;50.872;5.306;2022-07-23T08:17:45;14.95;;;5.70;;
27187;SDS011;14708;50.872;5.306;2022-07-23T08:20:12;11.45;;;5.65;;
27187;SDS011;14708;50.872;5.306;2022-07-23T08:25:31;37.95;;;10.05;;
27187;SDS011;14708;50.872;5.306;2022-07-23T08:27:59;33.45;;;10.65;;
27187;SDS011;14708;50.872;5.306;2022-07-23T08:30:26;34.72;;;11.77;;
27187;SDS011;14708;50.872;5.306;2022-07-23T08:32:53;59.50;;;14.90;;
27187;SDS011;14708;50.872;5.306;2022-07-23T08:35:30;45.65;;;13.02;;
27187;SDS011;14708;50.872;5.306;2022-07-23T08:37:57;49.85;;;13.45;;
27187;SDS011;14708;50.872;5.306;2022-07-23T08:40:28;62.45;;;15.60;;
27187;SDS011;14708;50.872;5.306;2022-07-23T08:42:55;47.05;;;13.82;;
27187;SDS011;14708;50.872;5.306;2022-07-23T08:45:22;37.97;;;12.00;;
27187;SDS011;14708;50.872;5.306;2022-07-23T08:47:53;36.70;;;10.70;;
27187;SDS011;14708;50.872;5.306;2022-07-23T08:50:20;33.50;;;11.18;;
27187;SDS011;14708;50.872;5.306;2022-07-23T08:52:47;26.92;;;9.02;;
27187;SDS011;14708;50.872;5.306;2022-07-23T08:55:15;23.65;;;8.38;;
27187;SDS011;14708;50.872;5.306;2022-07-23T08:57:42;20.13;;;8.10;;
27187;SDS011;14708;50.872;5.306;2022-07-23T09:00:08;24.67;;;8.27;;
27187;SDS011;14708;50.872;5.306;2022-07-23T09:02:38;15.70;;;6.80;;
27187;SDS011;14708;50.872;5.306;2022-07-23T09:05:05;14.85;;;6.28;;
27187;SDS011;14708;50.872;5.306;2022-07-23T09:07:31;11.82;;;5.63;;
27187;SDS011;14708;50.872;5.306;2022-07-23T09:10:07;10.98;;;5.13;;
27187;SDS011;14708;50.872;5.306;2022-07-23T09:12:34;13.82;;;5.75;;
27187;SDS011;14708;50.872;5.306;2022-07-23T09:15:06;8.25;;;5.13;;
27187;SDS011;14708;50.872;5.306;2022-07-23T09:17:41;9.90;;;4.97;;
27187;SDS011;14708;50.872;5.306;2022-07-23T09:20:10;10.73;;;4.40;;
27187;SDS011;14708;50.872;5.306;2022-07-23T09:22:40;9.85;;;4.40;;
27187;SDS011;14708;50.872;5.306;2022-07-23T09:25:12;7.00;;;4.53;;
27187;SDS011;14708;50.872;5.306;2022-07-23T09:27:56;7.35;;;4.57;;
27187;SDS011;14708;50.872;5.306;2022-07-23T09:30:29;9.57;;;4.68;;
27187;SDS011;14708;50.872;5.306;2022-07-23T09:33:05;10.43;;;5.60;;
27187;SDS011;14708;50.872;5.306;2022-07-23T09:38:28;10.00;;;5.07;;
27187;SDS011;14708;50.872;5.306;2022-07-23T09:43:32;10.63;;;5.43;;
27187;SDS011;14708;50.872;5.306;2022-07-23T09:48:52;14.93;;;5.13;;
27187;SDS011;14708;50.872;5.306;2022-07-23T09:51:21;9.05;;;4.50;;
27187;SDS011;14708;50.872;5.306;2022-07-23T09:53:48;13.32;;;4.10;;
27187;SDS011;14708;50.872;5.306;2022-07-23T09:56:14;10.10;;;3.95;;
27187;SDS011;14708;50.872;5.306;2022-07-23T09:58:57;7.85;;;3.97;;
27187;SDS011;14708;50.872;5.306;2022-07-23T10:01:37;10.50;;;4.68;;
27187;SDS011;14708;50.872;5.306;2022-07-23T10:04:03;7.38;;;4.43;;
27187;SDS011;14708;50.872;5.306;2022-07-23T10:06:30;7.40;;;4.05;;
27187;SDS011;14708;50.872;5.306;2022-07-23T10:08:56;9.02;;;4.22;;
27187;SDS011;14708;50.872;5.306;2022-07-23T10:11:24;12.60;;;4.47;;
27187;SDS011;14708;50.872;5.306;2022-07-23T10:13:53;6.82;;;3.78;;
27187;SDS011;14708;50.872;5.306;2022-07-23T10:16:24;6.30;;;4.18;;
27187;SDS011;14708;50.872;5.306;2022-07-23T10:18:58;7.40;;;3.83;;
27187;SDS011;14708;50.872;5.306;2022-07-23T10:21:30;6.50;;;3.65;;
27187;SDS011;14708;50.872;5.306;2022-07-23T10:29:29;9.88;;;3.22;;
27187;SDS011;14708;50.872;5.306;2022-07-23T10:32:26;10.10;;;3.77;;
27187;SDS011;14708;50.872;5.306;2022-07-23T10:37:44;13.48;;;3.58;;
27187;SDS011;14708;50.872;5.306;2022-07-23T10:42:42;12.93;;;3.60;;
27187;SDS011;14708;50.872;5.306;2022-07-23T10:45:21;18.73;;;4.13;;
27187;SDS011;14708;50.872;5.306;2022-07-23T10:47:55;15.65;;;4.05;;
27187;SDS011;14708;50.872;5.306;2022-07-23T10:50:36;9.82;;;2.90;;
27187;SDS011;14708;50.872;5.306;2022-07-23T10:53:16;11.70;;;3.63;;
27187;SDS011;14708;50.872;5.306;2022-07-23T10:55:44;8.95;;;3.20;;
27187;SDS011;14708;50.872;5.306;2022-07-23T10:58:12;17.85;;;3.65;;
27187;SDS011;14708;50.872;5.306;2022-07-23T11:00:44;7.85;;;3.63;;
27187;SDS011;14708;50.872;5.306;2022-07-23T11:03:27;10.95;;;3.33;;
27187;SDS011;14708;50.872;5.306;2022-07-23T11:05:57;10.68;;;3.42;;
27187;SDS011;14708;50.872;5.306;2022-07-23T11:08:23;9.90;;;3.17;;
27187;SDS011;14708;50.872;5.306;2022-07-23T11:10:50;9.50;;;3.10;;
27187;SDS011;14708;50.872;5.306;2022-07-23T11:16:07;11.15;;;3.03;;
27187;SDS011;14708;50.872;5.306;2022-07-23T11:32:03;8.48;;;3.90;;
27187;SDS011;14708;50.872;5.306;2022-07-23T11:34:43;7.38;;;4.07;;
27187;SDS011;14708;50.872;5.306;2022-07-23T11:37:26;8.15;;;4.10;;
27187;SDS011;14708;50.872;5.306;2022-07-23T11:39:59;9.20;;;4.53;;
27187;SDS011;14708;50.872;5.306;2022-07-23T11:42:25;10.32;;;4.60;;
27187;SDS011;14708;50.872;5.306;2022-07-23T11:44:51;7.82;;;4.22;;
27187;SDS011;14708;50.872;5.306;2022-07-23T11:47:21;11.18;;;3.70;;
27187;SDS011;14708;50.872;5.306;2022-07-23T11:49:51;10.18;;;5.45;;
27187;SDS011;14708;50.872;5.306;2022-07-23T11:52:21;9.98;;;4.85;;
27187;SDS011;14708;50.872;5.306;2022-07-23T11:57:28;6.78;;;3.78;;
27187;SDS011;14708;50.872;5.306;2022-07-23T11:59:56;10.30;;;4.15;;
27187;SDS011;14708;50.872;5.306;2022-07-23T12:02:25;8.23;;;4.60;;
27187;SDS011;14708;50.872;5.306;2022-07-23T12:04:51;7.15;;;3.90;;
27187;SDS011;14708;50.872;5.306;2022-07-23T12:07:28;7.03;;;4.50;;
27187;SDS011;14708;50.872;5.306;2022-07-23T12:09:54;6.45;;;3.75;;
27187;SDS011;14708;50.872;5.306;2022-07-23T12:12:21;7.22;;;4.32;;
27187;SDS011;14708;50.872;5.306;2022-07-23T12:14:54;10.98;;;4.57;;
27187;SDS011;14708;50.872;5.306;2022-07-23T12:17:24;15.63;;;5.32;;
27187;SDS011;14708;50.872;5.306;2022-07-23T12:19:59;10.63;;;5.18;;
27187;SDS011;14708;50.872;5.306;2022-07-23T12:22:32;12.68;;;5.20;;
27187;SDS011;14708;50.872;5.306;2022-07-23T12:25:07;6.55;;;4.68;;
27187;SDS011;14708;50.872;5.306;2022-07-23T12:27:38;8.98;;;4.28;;
27187;SDS011;14708;50.872;5.306;2022-07-23T12:30:17;7.13;;;4.07;;
27187;SDS011;14708;50.872;5.306;2022-07-23T12:32:50;9.52;;;4.95;;
27187;SDS011;14708;50.872;5.306;2022-07-23T12:35:20;8.80;;;4.80;;
27187;SDS011;14708;50.872;5.306;2022-07-23T12:37:47;10.50;;;4.30;;
27187;SDS011;14708;50.872;5.306;2022-07-23T12:42:50;6.50;;;4.15;;
27187;SDS011;14708;50.872;5.306;2022-07-23T12:45:24;9.07;;;4.07;;
27187;SDS011;14708;50.872;5.306;2022-07-23T12:47:58;9.43;;;4.20;;
27187;SDS011;14708;50.872;5.306;2022-07-23T12:50:34;8.02;;;4.65;;
27187;SDS011;14708;50.872;5.306;2022-07-23T12:55:46;10.88;;;4.97;;
27187;SDS011;14708;50.872;5.306;2022-07-23T12:58:13;6.30;;;4.22;;
27187;SDS011;14708;50.872;5.306;2022-07-23T13:03:33;7.68;;;3.55;;
27187;SDS011;14708;50.872;5.306;2022-07-23T13:06:04;11.55;;;4.10;;
27187;SDS011;14708;50.872;5.306;2022-07-23T13:08:32;5.75;;;3.95;;
27187;SDS011;14708;50.872;5.306;2022-07-23T13:10:59;6.65;;;3.83;;
27187;SDS011;14708;50.872;5.306;2022-07-23T13:13:26;9.15;;;3.70;;
27187;SDS011;14708;50.872;5.306;2022-07-23T13:15:53;6.80;;;4.20;;
27187;SDS011;14708;50.872;5.306;2022-07-23T13:18:19;6.68;;;3.80;;
27187;SDS011;14708;50.872;5.306;2022-07-23T13:20:46;7.82;;;4.00;;
27187;SDS011;14708;50.872;5.306;2022-07-23T13:23:12;5.40;;;3.75;;
27187;SDS011;14708;50.872;5.306;2022-07-23T13:25:39;6.20;;;3.97;;
27187;SDS011;14708;50.872;5.306;2022-07-23T13:28:05;9.15;;;3.90;;
27187;SDS011;14708;50.872;5.306;2022-07-23T13:30:31;5.50;;;3.90;;
27187;SDS011;14708;50.872;5.306;2022-07-23T13:32:57;6.50;;;4.32;;
27187;SDS011;14708;50.872;5.306;2022-07-23T13:35:22;5.85;;;3.92;;
27187;SDS011;14708;50.872;5.306;2022-07-23T13:37:49;8.68;;;3.85;;
27187;SDS011;14708;50.872;5.306;2022-07-23T13:40:14;4.88;;;3.78;;
27187;SDS011;14708;50.872;5.306;2022-07-23T13:42:40;5.60;;;4.18;;
27187;SDS011;14708;50.872;5.306;2022-07-23T13:45:06;6.45;;;3.60;;
27187;SDS011;14708;50.872;5.306;2022-07-23T13:47:32;6.78;;;3.80;;
27187;SDS011;14708;50.872;5.306;2022-07-23T13:49:57;5.53;;;3.80;;
27187;SDS011;14708;50.872;5.306;2022-07-23T13:52:25;4.22;;;3.50;;
27187;SDS011;14708;50.872;5.306;2022-07-23T13:54:51;3.65;;;3.15;;
27187;SDS011;14708;50.872;5.306;2022-07-23T13:57:17;5.25;;;3.60;;
27187;SDS011;14708;50.872;5.306;2022-07-23T13:59:43;4.90;;;2.90;;
27187;SDS011;14708;50.872;5.306;2022-07-23T14:02:09;4.30;;;3.05;;
27187;SDS011;14708;50.872;5.306;2022-07-23T14:04:35;6.40;;;3.60;;
27187;SDS011;14708;50.872;5.306;2022-07-23T14:07:00;7.43;;;3.78;;
27187;SDS011;14708;50.872;5.306;2022-07-23T14:09:26;3.80;;;3.08;;
27187;SDS011;14708;50.872;5.306;2022-07-23T14:11:52;4.30;;;3.45;;
27187;SDS011;14708;50.872;5.306;2022-07-23T14:14:18;5.00;;;3.33;;
27187;SDS011;14708;50.872;5.306;2022-07-23T14:16:44;4.25;;;3.85;;
27187;SDS011;14708;50.872;5.306;2022-07-23T14:19:10;4.05;;;3.00;;
27187;SDS011;14708;50.872;5.306;2022-07-23T14:21:35;4.97;;;3.35;;
27187;SDS011;14708;50.872;5.306;2022-07-23T14:24:01;6.03;;;3.22;;
27187;SDS011;14708;50.872;5.306;2022-07-23T14:26:27;5.50;;;3.58;;
27187;SDS011;14708;50.872;5.306;2022-07-23T14:28:53;3.85;;;3.03;;
27187;SDS011;14708;50.872;5.306;2022-07-23T14:31:19;7.63;;;3.35;;
27187;SDS011;14708;50.872;5.306;2022-07-23T14:33:44;6.25;;;3.53;;
27187;SDS011;14708;50.872;5.306;2022-07-23T14:36:10;3.55;;;2.85;;
27187;SDS011;14708;50.872;5.306;2022-07-23T14:38:38;4.22;;;3.17;;
27187;SDS011;14708;50.872;5.306;2022-07-23T14:41:06;3.80;;;3.50;;
27187;SDS011;14708;50.872;5.306;2022-07-23T14:43:33;5.57;;;3.30;;
27187;SDS011;14708;50.872;5.306;2022-07-23T14:45:58;4.32;;;3.63;;
27187;SDS011;14708;50.872;5.306;2022-07-23T14:48:24;6.03;;;3.15;;
27187;SDS011;14708;50.872;5.306;2022-07-23T14:50:50;4.63;;;3.00;;
27187;SDS011;14708;50.872;5.306;2022-07-23T14:53:16;4.78;;;3.25;;
27187;SDS011;14708;50.872;5.306;2022-07-23T14:55:42;12.73;;;3.60;;
27187;SDS011;14708;50.872;5.306;2022-07-23T14:58:08;8.23;;;3.40;;
27187;SDS011;14708;50.872;5.306;2022-07-23T15:00:34;9.73;;;3.42;;
27187;SDS011;14708;50.872;5.306;2022-07-23T15:02:59;4.40;;;2.95;;
27187;SDS011;14708;50.872;5.306;2022-07-23T15:05:25;5.45;;;3.50;;
27187;SDS011;14708;50.872;5.306;2022-07-23T15:07:50;5.03;;;3.13;;
27187;SDS011;14708;50.872;5.306;2022-07-23T15:10:16;4.72;;;3.55;;
27187;SDS011;14708;50.872;5.306;2022-07-23T15:12:42;10.30;;;3.30;;
27187;SDS011;14708;50.872;5.306;2022-07-23T15:15:07;11.73;;;3.78;;
27187;SDS011;14708;50.872;5.306;2022-07-23T15:17:33;7.03;;;3.40;;
27187;SDS011;14708;50.872;5.306;2022-07-23T15:19:59;5.47;;;3.25;;
27187;SDS011;14708;50.872;5.306;2022-07-23T15:22:25;4.68;;;3.47;;
27187;SDS011;14708;50.872;5.306;2022-07-23T15:24:51;7.82;;;3.50;;
27187;SDS011;14708;50.872;5.306;2022-07-23T15:27:17;20.20;;;3.58;;
27187;SDS011;14708;50.872;5.306;2022-07-23T15:29:43;8.77;;;3.67;;
27187;SDS011;14708;50.872;5.306;2022-07-23T15:32:09;11.77;;;3.72;;